createdAt,value
2018-03-16T00:00:40.036Z,3.70
2018-03-16T00:03:07.500Z,4.03
2018-03-16T00:05:34.952Z,3.47
2018-03-16T00:08:03.069Z,3.33
2018-03-16T00:10:30.864Z,3.70
2018-03-16T00:12:58.339Z,3.70
2018-03-16T00:15:25.824Z,4.87
2018-03-16T00:17:53.303Z,4.10
2018-03-16T00:20:20.788Z,3.70
2018-03-16T00:22:48.262Z,3.80
2018-03-16T00:25:15.727Z,4.23
2018-03-16T00:27:43.203Z,3.37
2018-03-16T00:30:10.696Z,4.10
2018-03-16T00:32:38.276Z,3.60
2018-03-16T00:35:05.719Z,3.80
2018-03-16T00:37:33.186Z,3.40
2018-03-16T00:40:00.670Z,3.97
2018-03-16T00:42:29.524Z,3.80
2018-03-16T00:44:57.028Z,4.20
2018-03-16T00:47:24.483Z,4.10
2018-03-16T00:49:51.977Z,3.90
2018-03-16T00:52:19.477Z,4.53
2018-03-16T00:54:47.262Z,4.37
2018-03-16T00:57:14.779Z,3.73
2018-03-16T00:59:42.257Z,3.97
2018-03-16T01:02:09.762Z,4.07
2018-03-16T01:04:37.222Z,3.70
2018-03-16T01:07:04.683Z,3.83
2018-03-16T01:09:32.236Z,3.73
2018-03-16T01:11:59.716Z,4.00
2018-03-16T01:14:27.321Z,4.47
2018-03-16T01:16:54.792Z,3.50
2018-03-16T01:19:22.279Z,3.67
2018-03-16T01:21:49.746Z,4.43
2018-03-16T01:24:17.224Z,3.90
2018-03-16T01:26:44.696Z,3.63
2018-03-16T01:29:12.140Z,3.30
2018-03-16T01:31:39.611Z,3.40
2018-03-16T01:34:07.083Z,4.33
2018-03-16T01:36:34.543Z,3.80
2018-03-16T01:39:02.152Z,3.50
2018-03-16T01:41:29.636Z,3.60
2018-03-16T01:43:57.111Z,4.10
2018-03-16T01:46:24.584Z,3.70
2018-03-16T01:48:52.042Z,4.20
2018-03-16T01:51:19.502Z,3.80
2018-03-16T01:53:46.966Z,3.80
2018-03-16T01:56:14.475Z,4.30
2018-03-16T01:58:41.959Z,4.07
2018-03-16T02:01:09.449Z,4.80
2018-03-16T02:03:36.920Z,4.10
2018-03-16T02:06:04.435Z,4.03
2018-03-16T02:08:32.034Z,4.30
2018-03-16T02:10:59.501Z,4.23
2018-03-16T02:13:26.997Z,4.20
2018-03-16T02:15:54.464Z,3.37
2018-03-16T02:18:21.923Z,3.50
2018-03-16T02:20:49.395Z,3.60
2018-03-16T02:23:16.872Z,3.70
2018-03-16T02:25:44.324Z,3.50
2018-03-16T02:28:11.785Z,3.60
2018-03-16T02:30:39.247Z,4.13
2018-03-16T02:33:06.731Z,4.30
2018-03-16T02:35:34.217Z,3.57
2018-03-16T02:38:01.685Z,3.97
2018-03-16T02:40:29.207Z,4.20
2018-03-16T02:42:56.669Z,4.50
2018-03-16T02:45:24.183Z,3.90
2018-03-16T02:47:51.709Z,4.07
2018-03-16T02:50:19.098Z,3.80
2018-03-16T02:52:46.570Z,4.70
2018-03-16T02:55:14.042Z,4.20
2018-03-16T02:57:41.503Z,3.80
2018-03-16T03:00:09.019Z,3.77
2018-03-16T03:02:36.514Z,4.20
2018-03-16T03:05:04.026Z,3.80
2018-03-16T03:07:31.488Z,3.63
2018-03-16T03:09:58.979Z,4.17
2018-03-16T03:12:26.693Z,4.20
2018-03-16T03:14:54.209Z,4.50
2018-03-16T03:17:21.715Z,3.80
2018-03-16T03:19:49.180Z,4.10
2018-03-16T03:22:17.083Z,3.27
2018-03-16T03:24:44.884Z,4.10
2018-03-16T03:27:12.336Z,3.73
2018-03-16T03:29:39.804Z,4.17
2018-03-16T03:32:07.277Z,4.90
2018-03-16T03:34:34.758Z,4.83
2018-03-16T03:37:02.271Z,4.47
2018-03-16T03:39:29.728Z,4.20
2018-03-16T03:41:57.204Z,3.93
2018-03-16T03:44:24.667Z,4.07
2018-03-16T03:46:52.166Z,4.17
2018-03-16T03:49:19.649Z,4.40
2018-03-16T03:51:47.117Z,4.30
2018-03-16T03:54:14.600Z,4.83
2018-03-16T03:56:42.079Z,4.30
2018-03-16T03:59:09.564Z,4.60
2018-03-16T04:01:37.032Z,4.70
2018-03-16T04:04:04.487Z,4.30
2018-03-16T04:06:32.051Z,5.53
2018-03-16T04:08:59.529Z,5.77
2018-03-16T04:11:26.995Z,5.60
2018-03-16T04:13:54.490Z,4.80
2018-03-16T04:16:21.968Z,5.00
2018-03-16T04:18:49.584Z,5.17
2018-03-16T04:21:17.102Z,5.40
2018-03-16T04:23:44.587Z,4.80
2018-03-16T04:26:12.071Z,4.97
2018-03-16T04:28:39.536Z,4.77
2018-03-16T04:31:07.035Z,5.50
2018-03-16T04:33:34.476Z,4.60
2018-03-16T04:36:01.933Z,5.20
2018-03-16T04:38:29.443Z,4.97
2018-03-16T04:40:56.907Z,4.77
2018-03-16T04:43:24.432Z,5.07
2018-03-16T04:45:51.888Z,4.93
2018-03-16T04:48:19.343Z,4.43
2018-03-16T04:50:46.875Z,5.97
2018-03-16T04:53:14.346Z,5.10
2018-03-16T04:55:41.801Z,5.00
2018-03-16T04:58:09.272Z,5.07
2018-03-16T05:00:36.744Z,4.63
2018-03-16T05:03:04.257Z,6.10
2018-03-16T05:05:31.744Z,5.50
2018-03-16T05:07:59.205Z,5.40
2018-03-16T05:10:26.680Z,4.60
2018-03-16T05:12:54.133Z,5.37
2018-03-16T05:15:21.586Z,6.10
2018-03-16T05:17:49.052Z,5.50
2018-03-16T05:20:17.363Z,5.70
2018-03-16T05:22:44.836Z,6.43
2018-03-16T05:25:12.311Z,5.63
2018-03-16T05:27:39.768Z,6.80
2018-03-16T05:30:07.297Z,6.37
2018-03-16T05:32:34.778Z,5.50
2018-03-16T05:35:02.255Z,5.90
2018-03-16T05:37:29.741Z,6.37
2018-03-16T05:39:57.198Z,6.77
2018-03-16T05:42:24.797Z,6.03
2018-03-16T05:44:52.280Z,7.03
2018-03-16T05:47:19.767Z,6.80
2018-03-16T05:49:47.227Z,7.80
2018-03-16T05:52:14.724Z,7.00
2018-03-16T05:54:42.272Z,7.07
2018-03-16T05:57:09.737Z,7.63
2018-03-16T05:59:37.188Z,7.30
2018-03-16T06:02:04.673Z,6.70
2018-03-16T06:04:32.413Z,6.47
2018-03-16T06:06:59.909Z,7.10
2018-03-16T06:09:28.931Z,7.60
2018-03-16T06:11:56.427Z,7.07
2018-03-16T06:14:23.920Z,7.33
2018-03-16T06:16:51.395Z,7.03
2018-03-16T06:19:18.866Z,7.50
2018-03-16T06:21:46.376Z,7.40
2018-03-16T06:24:13.853Z,6.80
2018-03-16T06:26:41.321Z,6.33
2018-03-16T06:29:08.853Z,6.57
2018-03-16T06:31:36.298Z,6.53
2018-03-16T06:34:03.825Z,6.33
2018-03-16T06:36:31.332Z,6.20
2018-03-16T06:38:59.557Z,7.40
2018-03-16T06:41:27.018Z,8.57
2018-03-16T06:43:54.492Z,6.23
2018-03-16T06:46:21.960Z,6.10
2018-03-16T06:48:49.453Z,7.10
2018-03-16T06:51:17.098Z,5.43
2018-03-16T06:53:44.685Z,6.00
2018-03-16T06:56:12.235Z,5.40
2018-03-16T06:58:39.717Z,7.00
2018-03-16T07:01:07.253Z,7.10
2018-03-16T07:03:34.763Z,6.07
2018-03-16T07:06:02.220Z,6.63
2018-03-16T07:08:30.595Z,7.30
2018-03-16T07:10:58.036Z,7.93
2018-03-16T07:13:25.497Z,6.60
2018-03-16T07:15:52.979Z,6.00
2018-03-16T07:18:20.436Z,6.40
2018-03-16T07:20:47.898Z,5.40
2018-03-16T07:23:15.380Z,6.20
2018-03-16T07:25:42.854Z,7.93
2018-03-16T07:28:10.329Z,6.87
2018-03-16T07:30:38.859Z,6.00
2018-03-16T07:33:06.339Z,6.20
2018-03-16T07:35:33.807Z,6.23
2018-03-16T07:38:01.456Z,5.70
2018-03-16T07:40:29.082Z,6.10
2018-03-16T07:42:56.735Z,6.20
2018-03-16T07:45:29.848Z,6.67
2018-03-16T07:47:57.303Z,6.10
2018-03-16T07:50:24.757Z,6.03
2018-03-16T07:52:52.260Z,6.60
2018-03-16T07:55:19.731Z,6.40
2018-03-16T07:57:47.199Z,6.47
2018-03-16T08:00:14.692Z,6.17
2018-03-16T08:02:42.171Z,6.60
2018-03-16T08:05:09.658Z,7.40
2018-03-16T08:07:37.108Z,6.80
2018-03-16T08:10:04.621Z,6.40
2018-03-16T08:12:32.132Z,6.80
2018-03-16T08:14:59.639Z,7.13
2018-03-16T08:17:27.134Z,6.40
2018-03-16T08:19:54.621Z,6.80
2018-03-16T08:22:22.111Z,6.40
2018-03-16T08:24:49.576Z,6.90
2018-03-16T08:27:17.292Z,6.60
2018-03-16T08:29:44.759Z,6.87
2018-03-16T08:32:12.211Z,6.90
2018-03-16T08:34:39.695Z,6.93
2018-03-16T08:37:07.211Z,6.00
2018-03-16T08:39:35.130Z,6.60
2018-03-16T08:42:03.232Z,5.60
2018-03-16T08:44:31.098Z,6.93
2018-03-16T08:46:58.761Z,7.00
2018-03-16T08:49:26.596Z,6.47
2018-03-16T08:51:54.181Z,6.10
2018-03-16T08:54:21.700Z,5.90
2018-03-16T08:56:49.185Z,5.80
2018-03-16T08:59:16.658Z,6.20
2018-03-16T09:01:44.178Z,7.50
2018-03-16T09:04:11.633Z,6.37
2018-03-16T09:06:39.116Z,7.20
2018-03-16T09:09:06.596Z,7.30
2018-03-16T09:11:34.080Z,6.70
2018-03-16T09:14:01.565Z,5.83
2018-03-16T09:16:29.048Z,7.00
2018-03-16T09:18:56.510Z,7.70
2018-03-16T09:21:23.964Z,7.13
2018-03-16T09:23:51.467Z,6.80
2018-03-16T09:26:18.936Z,9.07
2018-03-16T09:28:46.448Z,8.10
2018-03-16T09:31:13.896Z,8.90
2018-03-16T09:33:41.455Z,9.30
2018-03-16T09:36:08.970Z,9.30
2018-03-16T09:38:36.894Z,9.60
2018-03-16T09:41:04.416Z,8.33
2018-03-16T09:43:31.884Z,8.80
2018-03-16T09:45:59.364Z,8.87
2018-03-16T09:48:26.932Z,8.10
2018-03-16T09:50:54.474Z,8.90
2018-03-16T09:53:30.326Z,9.40
2018-03-16T09:55:57.815Z,8.57
2018-03-16T09:58:25.326Z,8.13
2018-03-16T10:00:52.829Z,7.50
2018-03-16T10:03:20.293Z,8.00
2018-03-16T10:05:47.780Z,8.30
2018-03-16T10:08:15.329Z,8.00
2018-03-16T10:10:42.804Z,8.17
2018-03-16T10:13:10.738Z,8.00
2018-03-16T10:15:38.225Z,8.00
2018-03-16T10:18:05.807Z,8.27
2018-03-16T10:20:33.275Z,7.43
2018-03-16T10:23:00.799Z,7.83
2018-03-16T10:25:28.339Z,8.87
2018-03-16T10:27:55.810Z,8.20
2018-03-16T10:30:23.887Z,8.80
2018-03-16T10:32:51.370Z,10.67
2018-03-16T10:35:18.847Z,9.00
2018-03-16T10:37:46.333Z,8.13
2018-03-16T10:40:14.053Z,10.70
2018-03-16T10:42:41.547Z,10.03
2018-03-16T10:45:09.041Z,10.60
2018-03-16T10:47:36.511Z,11.20
2018-03-16T10:50:04.030Z,11.83
2018-03-16T10:52:31.686Z,11.80
2018-03-16T10:54:59.257Z,12.00
2018-03-16T10:57:26.750Z,12.33
2018-03-16T10:59:54.213Z,12.50
2018-03-16T11:02:21.688Z,14.03
2018-03-16T11:04:54.641Z,13.60
2018-03-16T11:07:22.128Z,14.47
2018-03-16T11:09:49.590Z,13.10
2018-03-16T11:12:17.169Z,13.93
2018-03-16T11:14:44.718Z,14.73
2018-03-16T11:17:12.386Z,16.33
2018-03-16T11:19:39.921Z,16.60
2018-03-16T11:22:07.385Z,15.50
2018-03-16T11:24:34.882Z,16.43
2018-03-16T11:27:02.407Z,17.10
2018-03-16T11:29:29.901Z,17.10
2018-03-16T11:31:57.375Z,15.83
2018-03-16T11:34:24.864Z,18.23
2018-03-16T11:36:52.411Z,17.47
2018-03-16T11:39:19.953Z,19.40
2018-03-16T11:41:47.472Z,19.00
2018-03-16T11:44:15.149Z,17.33
2018-03-16T11:46:42.753Z,16.40
2018-03-16T11:49:10.262Z,19.07
2018-03-16T11:51:37.730Z,18.33
2018-03-16T11:54:05.252Z,20.00
2018-03-16T11:56:32.880Z,20.40
2018-03-16T11:59:00.368Z,20.40
2018-03-16T12:01:27.856Z,21.10
2018-03-16T12:03:55.332Z,20.80
2018-03-16T12:06:22.939Z,19.00
2018-03-16T12:08:50.449Z,18.63
2018-03-16T12:11:17.955Z,21.80
2018-03-16T12:13:45.501Z,22.23
2018-03-16T12:16:12.981Z,20.50
2018-03-16T12:18:40.480Z,22.23
2018-03-16T12:21:08.058Z,22.67
2018-03-16T12:23:35.528Z,23.10
2018-03-16T12:26:03.102Z,23.30
2018-03-16T12:28:49.341Z,24.63
2018-03-16T12:30:58.157Z,24.77
2018-03-16T12:33:25.682Z,24.10
2018-03-16T12:35:53.173Z,25.63
2018-03-16T12:38:20.651Z,24.17
2018-03-16T12:40:48.155Z,25.80
2018-03-16T12:43:21.163Z,26.27
2018-03-16T12:45:48.647Z,26.10
2018-03-16T12:48:16.185Z,25.17
2018-03-16T12:50:43.686Z,24.87
2018-03-16T12:53:11.156Z,25.13
2018-03-16T12:55:39.536Z,24.13
2018-03-16T12:58:07.020Z,23.40
2018-03-16T13:00:34.509Z,24.30
2018-03-16T13:03:02.173Z,23.80
2018-03-16T13:05:29.652Z,23.47
2018-03-16T13:07:57.148Z,22.37
2018-03-16T13:10:24.631Z,21.10
2018-03-16T13:12:52.092Z,21.40
2018-03-16T13:15:19.643Z,21.90
2018-03-16T13:17:47.526Z,20.33
2018-03-16T13:20:15.064Z,20.80
2018-03-16T13:22:42.530Z,20.20
2018-03-16T13:25:10.114Z,19.17
2018-03-16T13:27:37.622Z,19.70
2018-03-16T13:30:05.124Z,19.30
2018-03-16T13:32:32.886Z,19.50
2018-03-16T13:35:00.353Z,19.83
2018-03-16T13:37:27.806Z,19.63
2018-03-16T13:39:55.307Z,19.00
2018-03-16T13:42:22.816Z,20.07
2018-03-16T13:44:50.373Z,17.47
2018-03-16T13:47:17.908Z,19.17
2018-03-16T13:49:45.366Z,19.13
2018-03-16T13:52:12.936Z,18.73
2018-03-16T13:54:41.333Z,20.03
2018-03-16T13:57:08.824Z,21.50
2018-03-16T13:59:36.326Z,20.37
2018-03-16T14:02:03.836Z,22.10
2018-03-16T14:04:31.310Z,21.20
2018-03-16T14:06:58.799Z,22.00
2018-03-16T14:09:26.290Z,20.93
2018-03-16T14:11:53.823Z,23.10
2018-03-16T14:14:21.309Z,22.37
2018-03-16T14:16:48.883Z,21.80
2018-03-16T14:19:16.384Z,22.23
2018-03-16T14:21:43.894Z,22.13
2018-03-16T14:24:11.386Z,19.90
2018-03-16T14:26:38.905Z,22.57
2018-03-16T14:29:06.448Z,23.23
2018-03-16T14:31:33.916Z,21.20
2018-03-16T14:34:01.384Z,21.90
2018-03-16T14:36:29.519Z,21.77
2018-03-16T14:38:57.009Z,21.03
2018-03-16T14:41:24.544Z,21.10
2018-03-16T14:43:52.000Z,19.60
2018-03-16T14:46:19.471Z,18.80
2018-03-16T14:48:47.020Z,17.43
2018-03-16T14:51:15.057Z,18.37
2018-03-16T14:53:42.839Z,16.37
2018-03-16T14:56:10.335Z,16.90
2018-03-16T14:58:37.848Z,16.33
2018-03-16T15:01:05.385Z,16.80
2018-03-16T15:03:32.897Z,15.57
2018-03-16T15:06:00.430Z,16.90
2018-03-16T15:08:27.926Z,16.43
2018-03-16T15:10:55.401Z,16.30
2018-03-16T15:13:22.898Z,15.70
2018-03-16T15:15:50.450Z,15.53
2018-03-16T15:18:17.898Z,15.20
2018-03-16T15:20:45.380Z,16.57
2018-03-16T15:23:12.894Z,15.63
2018-03-16T15:25:40.389Z,15.23
2018-03-16T15:28:07.886Z,13.20
2018-03-16T15:30:35.389Z,14.47
2018-03-16T15:33:02.906Z,13.83
2018-03-16T15:35:30.390Z,12.70
2018-03-16T15:37:57.901Z,12.73
2018-03-16T15:40:25.372Z,13.37
2018-03-16T15:42:52.840Z,13.20
2018-03-16T15:45:20.319Z,12.20
2018-03-16T15:47:47.809Z,12.60
2018-03-16T15:50:15.317Z,12.00
2018-03-16T15:52:42.919Z,11.40
2018-03-16T15:55:10.453Z,10.83
2018-03-16T15:57:37.978Z,10.20
2018-03-16T16:00:05.547Z,11.60
2018-03-16T16:02:33.959Z,10.57
2018-03-16T16:05:01.455Z,11.47
2018-03-16T16:07:28.933Z,10.83
2018-03-16T16:09:56.424Z,9.57
2018-03-16T16:12:24.228Z,10.00
2018-03-16T16:14:51.720Z,9.80
2018-03-16T16:17:19.219Z,9.17
2018-03-16T16:19:46.704Z,10.50
2018-03-16T16:22:14.482Z,9.00
2018-03-16T16:24:42.061Z,10.03
2018-03-16T16:27:09.518Z,8.50
2018-03-16T16:29:37.001Z,7.40
2018-03-16T16:32:04.493Z,7.87
2018-03-16T16:34:34.057Z,7.60
2018-03-16T16:37:01.518Z,6.63
2018-03-16T16:39:29.021Z,8.50
2018-03-16T16:41:56.494Z,9.37
2018-03-16T16:44:23.992Z,9.70
2018-03-16T16:46:51.473Z,9.13
2018-03-16T16:49:18.964Z,8.90
2018-03-16T16:51:46.460Z,9.77
2018-03-16T16:54:13.928Z,9.00
2018-03-16T16:56:41.399Z,9.30
2018-03-16T16:59:08.871Z,9.10
2018-03-16T17:01:36.385Z,10.10
2018-03-16T17:04:03.873Z,9.60
2018-03-16T17:06:31.464Z,9.30
2018-03-16T17:08:58.958Z,10.07
2018-03-16T17:11:26.511Z,9.00
2018-03-16T17:13:53.994Z,9.53
2018-03-16T17:16:21.457Z,9.90
2018-03-16T17:18:48.969Z,9.30
2018-03-16T17:21:16.539Z,11.77
2018-03-16T17:23:44.031Z,10.73
2018-03-16T17:26:11.512Z,10.20
2018-03-16T17:28:40.618Z,11.80
2018-03-16T17:31:08.116Z,11.47
2018-03-16T17:33:35.640Z,11.10
2018-03-16T17:36:03.130Z,11.47
2018-03-16T17:38:31.830Z,11.23
2018-03-16T17:40:59.324Z,10.30
2018-03-16T17:43:26.794Z,9.57
2018-03-16T17:45:54.302Z,10.73
2018-03-16T17:48:21.770Z,9.80
2018-03-16T17:50:49.230Z,10.73
2018-03-16T17:53:16.721Z,11.00
2018-03-16T17:55:44.211Z,10.63
2018-03-16T17:58:11.703Z,11.67
2018-03-16T18:00:39.197Z,10.10
2018-03-16T18:03:06.691Z,11.80
2018-03-16T18:05:34.225Z,9.43
2018-03-16T18:08:01.705Z,8.63
2018-03-16T18:10:30.479Z,9.60
2018-03-16T18:12:57.960Z,10.07
2018-03-16T18:15:25.440Z,8.10
2018-03-16T18:17:53.354Z,7.30
2018-03-16T18:20:20.897Z,9.40
2018-03-16T18:22:48.407Z,12.63
2018-03-16T18:25:15.907Z,7.13
2018-03-16T18:27:43.477Z,10.93
2018-03-16T18:30:11.016Z,7.97
2018-03-16T18:32:41.411Z,6.97
2018-03-16T18:35:08.911Z,6.80
2018-03-16T18:37:37.336Z,7.50
2018-03-16T18:40:04.884Z,6.70
2018-03-16T18:42:32.510Z,8.00
2018-03-16T18:44:59.988Z,7.83
2018-03-16T18:47:27.486Z,8.57
2018-03-16T18:49:55.882Z,13.50
2018-03-16T18:52:23.458Z,10.37
2018-03-16T18:54:50.936Z,10.50
2018-03-16T18:57:20.046Z,10.10
2018-03-16T18:59:47.526Z,9.80
2018-03-16T19:02:15.314Z,11.00
2018-03-16T19:04:42.787Z,11.13
2018-03-16T19:07:10.266Z,11.27
2018-03-16T19:09:37.773Z,10.97
2018-03-16T19:12:05.265Z,10.13
2018-03-16T19:14:33.212Z,11.23
2018-03-16T19:17:00.717Z,11.20
2018-03-16T19:19:28.483Z,10.70
2018-03-16T19:21:56.140Z,12.27
2018-03-16T19:24:28.175Z,12.80
2018-03-16T19:26:55.674Z,12.63
2018-03-16T19:29:23.480Z,12.33
2018-03-16T19:31:51.029Z,12.13
2018-03-16T19:34:18.562Z,11.93
2018-03-16T19:36:48.798Z,11.77
2018-03-16T19:39:16.394Z,8.23
2018-03-16T19:41:43.947Z,8.77
2018-03-16T19:44:11.417Z,8.87
2018-03-16T19:46:38.905Z,7.57
2018-03-16T19:49:06.439Z,8.20
2018-03-16T19:51:33.954Z,8.00
2018-03-16T19:54:01.426Z,8.00
2018-03-16T19:56:28.922Z,9.60
2018-03-16T19:58:56.492Z,8.27
2018-03-16T20:01:23.981Z,8.17
2018-03-16T20:03:51.507Z,9.17
2018-03-16T20:06:19.077Z,11.07
2018-03-16T20:08:46.624Z,11.93
2018-03-16T20:11:14.101Z,13.80
2018-03-16T20:13:41.637Z,13.30
2018-03-16T20:16:09.288Z,13.70
2018-03-16T20:18:36.831Z,14.87
2018-03-16T20:21:04.298Z,15.00
2018-03-16T20:23:31.785Z,15.00
2018-03-16T20:25:59.265Z,15.40
2018-03-16T20:28:26.803Z,15.70
2018-03-16T20:30:54.297Z,12.70
2018-03-16T20:33:21.776Z,15.47
2018-03-16T20:35:49.300Z,13.27
2018-03-16T20:38:16.965Z,11.93
2018-03-16T20:40:44.520Z,11.67
2018-03-16T20:43:12.016Z,11.80
2018-03-16T20:45:39.538Z,11.43
2018-03-16T20:48:07.006Z,11.50
2018-03-16T20:50:34.542Z,11.50
2018-03-16T20:53:02.061Z,11.33
2018-03-16T20:55:29.532Z,11.63
2018-03-16T20:57:57.086Z,12.10
2018-03-16T21:00:24.761Z,12.17
2018-03-16T21:02:52.288Z,12.53
2018-03-16T21:05:19.797Z,13.03
2018-03-16T21:07:47.344Z,13.00
2018-03-16T21:10:15.898Z,11.97
2018-03-16T21:12:44.521Z,12.00
2018-03-16T21:15:12.058Z,11.77
2018-03-16T21:17:39.721Z,12.30
2018-03-16T21:20:07.236Z,12.43
2018-03-16T21:22:34.899Z,12.90
2018-03-16T21:25:02.433Z,13.67
2018-03-16T21:27:30.043Z,13.73
2018-03-16T21:29:57.593Z,13.20
2018-03-16T21:32:25.194Z,14.40
2018-03-16T21:34:52.693Z,14.07
2018-03-16T21:37:20.215Z,14.37
2018-03-16T21:39:47.712Z,14.70
2018-03-16T21:42:15.200Z,14.70
2018-03-16T21:44:42.781Z,14.00
2018-03-16T21:47:10.358Z,14.60
2018-03-16T21:49:37.905Z,15.77
2018-03-16T21:52:05.432Z,15.30
2018-03-16T21:54:33.150Z,15.20
2018-03-16T21:57:00.630Z,15.80
2018-03-16T21:59:28.146Z,16.50
2018-03-16T22:01:55.700Z,17.23
2018-03-16T22:04:23.155Z,16.30
2018-03-16T22:06:50.865Z,16.50
2018-03-16T22:09:22.472Z,17.67
2018-03-16T22:11:50.479Z,17.40
2018-03-16T22:14:18.186Z,16.80
2018-03-16T22:16:45.754Z,17.10
2018-03-16T22:19:13.297Z,18.30
2018-03-16T22:21:40.992Z,17.40
2018-03-16T22:24:08.606Z,19.77
2018-03-16T22:26:36.239Z,19.83
2018-03-16T22:29:03.708Z,18.30
2018-03-16T22:31:31.253Z,18.37
2018-03-16T22:33:58.772Z,18.10
2018-03-16T22:36:26.405Z,19.70
2018-03-16T22:38:53.858Z,18.23
2018-03-16T22:41:21.334Z,18.20
2018-03-16T22:43:48.895Z,19.57
2018-03-16T22:46:16.730Z,19.90
2018-03-16T22:51:19.189Z,19.20
2018-03-16T22:59:25.461Z,19.93
2018-03-16T23:01:55.039Z,22.43
2018-03-16T23:07:03.291Z,22.63
2018-03-16T23:09:32.988Z,23.43
2018-03-16T23:12:00.602Z,23.43
2018-03-16T23:14:36.398Z,24.50
2018-03-16T23:17:04.501Z,24.90
2018-03-16T23:19:32.754Z,23.43
2018-03-16T23:22:01.493Z,23.13
2018-03-16T23:24:31.488Z,24.17
2018-03-16T23:26:59.068Z,23.80
2018-03-16T23:29:26.731Z,24.00
2018-03-16T23:31:54.208Z,24.07
2018-03-16T23:36:53.924Z,22.13
2018-03-16T23:39:23.644Z,20.93
2018-03-16T23:44:25.477Z,21.87
2018-03-16T23:46:53.312Z,20.40
2018-03-16T23:49:22.374Z,18.87
2018-03-16T23:51:50.140Z,18.50
2018-03-16T23:54:17.778Z,18.00
2018-03-16T23:56:46.040Z,20.50
2018-03-16T23:59:14.116Z,16.40
